Time;durP1;ratioP1;P1;durP2;ratioP2;P2;SDS_P1;SDS_P2;PMS_P1;PMS_P2;Temp;Humidity;BMP_temperature;BMP_pressure;BME280_temperature;BME280_humidity;BME280_pressure;Samples;Min_cycle;Max_cycle;Signal;HPM_P1;HPM_P2
2024/02/29 00:00:11;;;;;;;1.67;1.57;;;6.90;98.20;;;;;;4882977;29;20462;-85
2024/02/29 00:02:39;;;;;;;1.60;1.40;;;6.90;98.20;;;;;;4889046;29;20913;-83
2024/02/29 00:05:09;;;;;;;1.60;1.20;;;6.90;98.20;;;;;;4884515;29;20466;-83
2024/02/29 00:07:36;;;;;;;1.60;1.20;;;6.90;98.20;;;;;;4886698;29;20504;-84
2024/02/29 00:10:03;;;;;;;1.60;1.23;;;6.90;98.20;;;;;;4884299;29;20534;-83
2024/02/29 00:12:31;;;;;;;1.60;1.30;;;6.90;98.20;;;;;;4880995;29;20508;-84
2024/02/29 00:14:58;;;;;;;1.60;1.30;;;6.90;98.20;;;;;;4883377;29;20681;-84
2024/02/29 00:17:25;;;;;;;1.60;1.30;;;6.90;98.20;;;;;;4876322;29;20511;-83
2024/02/29 00:19:51;;;;;;;1.70;1.50;;;6.80;98.20;;;;;;4884050;29;20466;-84
2024/02/29 00:22:20;;;;;;;1.60;1.30;;;6.80;98.20;;;;;;4887022;29;20497;-83
2024/02/29 00:24:47;;;;;;;1.60;1.20;;;6.80;98.20;;;;;;4884344;29;20214;-84
2024/02/29 00:27:14;;;;;;;2.53;2.33;;;6.80;98.20;;;;;;4867363;29;20526;-84
2024/02/29 00:29:43;;;;;;;1.57;1.30;;;6.80;98.20;;;;;;4878259;29;20550;-84
2024/02/29 00:32:11;;;;;;;1.60;1.20;;;6.80;98.20;;;;;;4871485;29;20560;-83
2024/02/29 00:34:40;;;;;;;1.53;1.30;;;6.80;98.20;;;;;;4875994;29;20543;-84
2024/02/29 00:37:07;;;;;;;4.37;4.07;;;6.80;98.20;;;;;;4878505;29;20490;-84
2024/02/29 00:39:34;;;;;;;1.60;1.40;;;6.80;98.20;;;;;;4881690;29;20483;-83
2024/02/29 00:42:00;;;;;;;1.60;1.40;;;6.80;98.20;;;;;;4870665;29;20498;-84
2024/02/29 00:44:27;;;;;;;1.57;1.20;;;6.80;98.20;;;;;;4875857;29;20562;-82
2024/02/29 00:46:56;;;;;;;1.60;1.40;;;6.80;98.20;;;;;;4868288;29;20506;-85
2024/02/29 00:49:22;;;;;;;1.60;1.20;;;6.80;98.20;;;;;;4880354;29;20554;-84
2024/02/29 00:51:52;;;;;;;1.53;1.20;;;6.80;98.20;;;;;;4872522;29;20566;-84
2024/02/29 00:54:24;;;;;;;1.53;1.20;;;6.70;98.20;;;;;;4873840;29;20486;-83
2024/02/29 00:57:10;;;;;;;1.60;1.40;;;6.70;98.20;;;;;;4868410;29;20483;-84
2024/02/29 00:59:42;;;;;;;1.60;1.30;;;6.70;98.20;;;;;;4877891;29;20475;-84
2024/02/29 01:02:10;;;;;;;1.60;1.40;;;6.70;98.20;;;;;;4878517;29;20510;-83
2024/02/29 01:04:45;;;;;;;2.10;1.90;;;6.70;98.20;;;;;;4882780;29;20505;-84
2024/02/29 01:07:57;;;;;;;1.57;1.27;;;6.70;98.20;;;;;;4868893;29;20784;-83
2024/02/29 01:10:44;;;;;;;1.87;1.77;;;6.70;98.20;;;;;;4874236;29;20466;-85
2024/02/29 01:13:11;;;;;;;1.60;1.30;;;6.70;98.20;;;;;;4869743;29;20529;-84
2024/02/29 01:15:38;;;;;;;1.60;1.33;;;6.70;98.20;;;;;;4877620;29;20534;-84
2024/02/29 01:18:07;;;;;;;1.57;1.20;;;6.70;98.20;;;;;;4882509;29;20572;-84
2024/02/29 01:20:34;;;;;;;3.80;3.50;;;6.60;98.20;;;;;;4877638;29;20470;-85
2024/02/29 01:23:06;;;;;;;1.80;1.70;;;6.60;98.20;;;;;;4867687;29;20597;-84
2024/02/29 01:25:41;;;;;;;1.60;1.37;;;6.60;98.20;;;;;;4877729;29;20474;-84
2024/02/29 01:28:16;;;;;;;1.60;1.40;;;6.60;98.20;;;;;;4881202;29;20489;-84
2024/02/29 01:31:00;;;;;;;1.60;1.30;;;6.60;98.20;;;;;;4876019;29;20838;-84
2024/02/29 01:33:31;;;;;;;1.60;1.30;;;6.60;98.20;;;;;;4879972;29;20489;-84
2024/02/29 01:36:01;;;;;;;1.60;1.30;;;6.50;98.20;;;;;;4866993;29;20998;-83
2024/02/29 01:38:40;;;;;;;1.60;1.40;;;6.40;98.20;;;;;;4878764;29;20482;-85
2024/02/29 01:41:09;;;;;;;2.23;1.80;;;6.40;98.20;;;;;;4866763;29;20487;-85
2024/02/29 01:43:55;;;;;;;1.60;1.30;;;6.40;98.20;;;;;;4885280;29;20487;-85
2024/02/29 01:46:24;;;;;;;2.07;1.83;;;6.40;98.20;;;;;;4871998;29;20477;-85
2024/02/29 01:48:53;;;;;;;1.60;1.30;;;6.40;98.20;;;;;;4889802;29;20478;-84
2024/02/29 01:51:21;;;;;;;1.60;1.30;;;6.40;98.20;;;;;;4876554;29;20503;-85
2024/02/29 01:53:48;;;;;;;1.57;1.30;;;6.40;98.20;;;;;;4890581;29;20499;-85
2024/02/29 01:56:29;;;;;;;1.60;1.30;;;6.40;98.20;;;;;;4875190;29;20485;-83
2024/02/29 01:59:02;;;;;;;1.60;1.30;;;6.40;98.20;;;;;;4887877;29;20783;-83
2024/02/29 02:01:36;;;;;;;1.60;1.30;;;6.40;98.20;;;;;;4876659;29;20484;-83
2024/02/29 02:04:16;;;;;;;1.60;1.30;;;6.40;98.20;;;;;;4903268;29;20530;-82
2024/02/29 02:06:57;;;;;;;5.50;2.80;;;6.40;98.20;;;;;;4885128;29;20548;-84
2024/02/29 02:09:28;;;;;;;1.60;1.30;;;6.40;98.20;;;;;;4885528;29;20496;-83
2024/02/29 02:12:08;;;;;;;5.30;4.90;;;6.30;98.20;;;;;;4879344;29;20496;-84
2024/02/29 02:14:39;;;;;;;3.97;3.77;;;6.30;98.20;;;;;;4887345;29;20478;-84
2024/02/29 02:20:30;;;;;;;1.60;1.40;;;6.30;98.20;;;;;;4879900;29;20474;-83
2024/02/29 02:23:05;;;;;;;1.60;1.50;;;6.30;98.20;;;;;;4882709;29;20484;-84
2024/02/29 02:25:40;;;;;;;1.60;1.30;;;6.30;98.20;;;;;;4878065;29;20513;-83
2024/02/29 02:28:07;;;;;;;1.60;1.30;;;6.30;98.20;;;;;;4882245;29;20492;-83
2024/02/29 02:30:33;;;;;;;1.60;1.30;;;6.30;98.20;;;;;;4880583;29;20507;-83
2024/02/29 02:33:00;;;;;;;1.60;1.40;;;6.30;98.20;;;;;;4885245;29;20497;-83
2024/02/29 02:35:33;;;;;;;1.60;1.30;;;6.20;98.20;;;;;;4879500;29;20482;-84
2024/02/29 02:38:00;;;;;;;1.60;1.30;;;6.20;98.20;;;;;;4889073;29;20784;-84
2024/02/29 02:40:28;;;;;;;1.60;1.20;;;6.20;98.20;;;;;;4880527;29;20530;-84
2024/02/29 02:42:54;;;;;;;1.60;1.40;;;6.20;98.20;;;;;;4888161;29;20497;-86
2024/02/29 02:45:27;;;;;;;1.57;1.20;;;6.20;98.20;;;;;;4877501;29;20496;-84
2024/02/29 02:47:55;;;;;;;1.60;1.20;;;6.20;98.20;;;;;;4867406;29;20487;-84
2024/02/29 02:50:22;;;;;;;1.60;1.40;;;6.10;98.20;;;;;;4876393;29;20471;-84
2024/02/29 02:52:50;;;;;;;2.07;1.87;;;6.10;98.20;;;;;;4885022;29;20494;-85
2024/02/29 02:55:17;;;;;;;2.23;2.03;;;6.10;98.20;;;;;;4870866;29;20922;-84
2024/02/29 02:57:51;;;;;;;1.60;1.30;;;6.10;98.20;;;;;;4880601;29;20501;-84
2024/02/29 03:00:21;;;;;;;1.60;1.30;;;6.10;98.20;;;;;;4877179;29;20529;-85
2024/02/29 03:02:51;;;;;;;1.60;1.30;;;6.10;98.20;;;;;;4883243;29;20481;-85
2024/02/29 03:05:23;;;;;;;1.60;1.30;;;6.00;98.20;;;;;;4878604;29;20497;-84
2024/02/29 03:07:55;;;;;;;1.60;1.30;;;6.00;98.20;;;;;;4872134;29;21001;-85
2024/02/29 03:10:28;;;;;;;1.60;1.37;;;6.00;98.20;;;;;;4870219;29;20841;-84
2024/02/29 03:12:55;;;;;;;1.60;1.30;;;5.90;98.20;;;;;;4870886;29;20490;-84
2024/02/29 03:15:24;;;;;;;1.60;1.30;;;5.90;98.20;;;;;;4873117;29;20471;-84
2024/02/29 03:17:55;;;;;;;1.60;1.30;;;5.90;98.20;;;;;;4873814;29;20869;-85
2024/02/29 03:20:27;;;;;;;1.60;1.30;;;5.80;98.20;;;;;;4877601;29;20562;-84
2024/02/29 03:22:56;;;;;;;1.60;1.47;;;5.80;98.20;;;;;;4881896;29;20486;-84
2024/02/29 03:25:23;;;;;;;1.60;1.30;;;5.80;98.20;;;;;;4879131;29;20476;-83
2024/02/29 03:27:51;;;;;;;1.60;1.30;;;5.80;98.20;;;;;;4867626;29;21017;-84
2024/02/29 03:30:18;;;;;;;1.60;1.37;;;5.80;98.20;;;;;;4874921;29;20478;-84
2024/02/29 03:32:45;;;;;;;1.60;1.30;;;5.80;98.20;;;;;;4870627;29;20491;-84
2024/02/29 03:35:12;;;;;;;1.60;1.40;;;5.70;98.20;;;;;;4874095;29;20542;-84
2024/02/29 03:37:39;;;;;;;1.60;1.30;;;5.70;98.20;;;;;;4868788;29;20491;-84
2024/02/29 03:40:09;;;;;;;1.60;1.30;;;5.70;98.20;;;;;;4870546;29;20569;-84
2024/02/29 03:42:36;;;;;;;1.60;1.40;;;5.60;98.20;;;;;;4877729;29;20736;-84
2024/02/29 03:45:02;;;;;;;1.60;1.23;;;5.60;98.20;;;;;;4878096;29;21043;-84
2024/02/29 03:47:31;;;;;;;1.60;1.30;;;5.60;98.20;;;;;;4901397;23;21053;-84
2024/02/29 03:49:57;;;;;;;1.60;1.40;;;5.60;98.20;;;;;;4878617;29;20562;-85
2024/02/29 03:52:24;;;;;;;1.63;1.53;;;5.60;98.20;;;;;;4883395;29;20491;-84
2024/02/29 03:54:51;;;;;;;1.60;1.37;;;5.60;98.20;;;;;;4883643;29;20470;-84
2024/02/29 03:57:19;;;;;;;1.60;1.30;;;5.60;98.20;;;;;;4858518;29;20566;-86
2024/02/29 03:59:47;;;;;;;1.60;1.30;;;5.60;98.20;;;;;;4865519;29;20477;-85
2024/02/29 04:02:14;;;;;;;1.60;1.40;;;5.60;98.20;;;;;;4861915;29;20478;-85
2024/02/29 04:04:41;;;;;;;1.60;1.30;;;5.60;98.20;;;;;;4865508;29;20475;-84
2024/02/29 04:07:07;;;;;;;1.60;1.30;;;5.60;98.20;;;;;;4861581;29;20794;-84
2024/02/29 04:09:34;;;;;;;1.70;1.60;;;5.50;98.20;;;;;;4866143;29;20551;-83
2024/02/29 04:12:01;;;;;;;1.57;1.30;;;5.50;98.20;;;;;;4856707;29;20518;-82
2024/02/29 04:14:33;;;;;;;1.60;1.40;;;5.40;98.20;;;;;;4866575;29;20476;-83
2024/02/29 04:17:01;;;;;;;1.60;1.30;;;5.40;98.20;;;;;;4847657;29;20495;-83
2024/02/29 04:19:28;;;;;;;1.53;1.30;;;5.40;98.20;;;;;;4861016;29;20494;-84
2024/02/29 04:21:54;;;;;;;1.60;1.33;;;5.40;98.20;;;;;;4862897;29;20574;-85
2024/02/29 04:24:21;;;;;;;1.60;1.40;;;5.40;98.20;;;;;;4864324;29;20565;-82
2024/02/29 04:26:48;;;;;;;1.60;1.30;;;5.40;98.20;;;;;;4856614;29;20532;-83
2024/02/29 04:29:15;;;;;;;1.60;1.30;;;5.40;98.20;;;;;;4867965;29;20471;-84
2024/02/29 04:31:48;;;;;;;1.60;1.30;;;5.40;98.20;;;;;;4860597;29;20487;-83
2024/02/29 04:34:15;;;;;;;1.60;1.30;;;5.40;98.20;;;;;;4866833;29;20481;-83
2024/02/29 04:36:41;;;;;;;1.60;1.40;;;5.40;98.20;;;;;;4851119;29;20500;-83
2024/02/29 04:39:09;;;;;;;1.60;1.30;;;5.40;98.20;;;;;;4857846;29;20495;-84
2024/02/29 04:41:35;;;;;;;1.60;1.30;;;5.40;98.20;;;;;;4858210;29;20729;-83
2024/02/29 04:44:02;;;;;;;1.60;1.40;;;5.40;98.20;;;;;;4872157;29;20562;-81
2024/02/29 04:46:29;;;;;;;1.73;1.63;;;5.40;98.20;;;;;;4848261;29;20488;-84
2024/02/29 04:48:57;;;;;;;1.60;1.40;;;5.40;98.20;;;;;;4859040;29;20581;-83
2024/02/29 04:51:24;;;;;;;1.60;1.30;;;5.40;98.20;;;;;;4856704;29;20483;-84
2024/02/29 04:53:51;;;;;;;1.60;1.30;;;5.40;98.20;;;;;;4874720;29;20992;-84
2024/02/29 04:56:18;;;;;;;1.60;1.40;;;5.40;98.20;;;;;;4855071;29;20501;-83
2024/02/29 04:58:45;;;;;;;2.13;1.93;;;5.40;98.20;;;;;;4871720;29;20491;-85
2024/02/29 05:01:13;;;;;;;1.60;1.40;;;5.40;98.20;;;;;;4854903;29;20586;-84
2024/02/29 05:03:39;;;;;;;1.60;1.50;;;5.40;98.20;;;;;;4870287;29;20507;-84
2024/02/29 05:06:16;;;;;;;1.60;1.30;;;5.40;98.20;;;;;;4851532;29;20542;-83
2024/02/29 05:08:43;;;;;;;1.57;1.30;;;5.40;98.20;;;;;;4864356;29;20523;-83
2024/02/29 05:11:11;;;;;;;1.60;1.40;;;5.40;98.20;;;;;;4854375;29;20489;-83
2024/02/29 05:13:38;;;;;;;1.60;1.30;;;5.40;98.20;;;;;;4870419;29;20533;-84
2024/02/29 05:16:05;;;;;;;2.30;2.10;;;5.40;98.20;;;;;;4847281;29;20515;-83
2024/02/29 05:18:32;;;;;;;1.60;1.30;;;5.40;98.20;;;;;;4853896;29;20877;-84
2024/02/29 05:20:59;;;;;;;1.60;1.30;;;5.40;98.20;;;;;;4852589;29;20523;-83
2024/02/29 05:23:27;;;;;;;1.60;1.30;;;5.40;98.20;;;;;;4859901;29;20475;-83
2024/02/29 05:25:55;;;;;;;1.50;1.20;;;5.30;98.20;;;;;;4851190;29;20467;-84
2024/02/29 05:28:23;;;;;;;1.57;1.30;;;5.30;98.20;;;;;;4855511;29;20491;-84
2024/02/29 05:30:49;;;;;;;1.50;1.30;;;5.30;98.20;;;;;;4853218;29;20501;-86
2024/02/29 05:33:16;;;;;;;1.53;1.30;;;5.30;98.20;;;;;;4856310;29;20590;-84
2024/02/29 05:35:48;;;;;;;1.53;1.30;;;5.30;98.20;;;;;;4861040;29;20483;-85
2024/02/29 05:38:15;;;;;;;1.60;1.30;;;5.30;98.20;;;;;;4850281;29;20496;-85
2024/02/29 05:40:44;;;;;;;1.60;1.30;;;5.30;98.20;;;;;;4859085;29;20563;-84
2024/02/29 05:43:11;;;;;;;1.60;1.30;;;5.20;98.20;;;;;;4846752;29;20476;-83
2024/02/29 05:45:38;;;;;;;1.60;1.30;;;5.20;98.20;;;;;;4859635;29;20560;-84
2024/02/29 05:48:06;;;;;;;1.57;1.30;;;5.20;98.20;;;;;;4842719;29;20491;-83
2024/02/29 05:50:32;;;;;;;1.60;1.30;;;5.20;98.20;;;;;;4861595;29;20483;-85
2024/02/29 05:53:04;;;;;;;1.60;1.30;;;5.20;98.20;;;;;;4845624;29;20483;-83
2024/02/29 05:55:31;;;;;;;1.60;1.43;;;5.20;98.20;;;;;;4862526;29;20463;-85
2024/02/29 05:57:59;;;;;;;1.80;1.70;;;5.20;98.20;;;;;;4851065;29;20512;-85
2024/02/29 06:00:26;;;;;;;1.60;1.30;;;5.20;98.20;;;;;;4860282;29;20482;-85
2024/02/29 06:02:53;;;;;;;2.30;2.10;;;5.20;98.20;;;;;;4853193;29;20505;-85
2024/02/29 06:05:20;;;;;;;1.60;1.30;;;5.20;98.20;;;;;;4861461;29;20471;-84
2024/02/29 06:07:46;;;;;;;1.60;1.30;;;5.20;98.20;;;;;;4858927;29;20491;-83
2024/02/29 06:10:13;;;;;;;1.60;1.30;;;5.20;98.20;;;;;;4859260;29;20478;-84
2024/02/29 06:12:43;;;;;;;1.60;1.40;;;5.10;98.20;;;;;;4851100;29;20483;-82
2024/02/29 06:15:11;;;;;;;1.60;1.40;;;5.10;98.20;;;;;;4863526;29;20467;-84
2024/02/29 06:17:38;;;;;;;1.60;1.30;;;5.10;98.20;;;;;;4862167;29;20492;-81
2024/02/29 06:20:10;;;;;;;1.60;1.30;;;5.20;98.20;;;;;;4860650;29;20503;-84
2024/02/29 06:22:37;;;;;;;1.60;1.30;;;5.20;98.20;;;;;;4846043;29;20601;-84
2024/02/29 06:25:05;;;;;;;2.80;2.60;;;5.20;98.20;;;;;;4862082;29;21018;-83
2024/02/29 06:27:33;;;;;;;1.57;1.30;;;5.10;98.20;;;;;;4861753;29;20482;-82
2024/02/29 06:30:02;;;;;;;1.60;1.50;;;5.10;98.20;;;;;;4868358;29;20535;-84
2024/02/29 06:32:30;;;;;;;1.57;1.30;;;5.10;98.20;;;;;;4869458;29;20476;-83
2024/02/29 06:34:57;;;;;;;1.53;1.20;;;5.10;98.20;;;;;;4864081;29;20478;-82
2024/02/29 06:37:23;;;;;;;1.60;1.30;;;5.10;98.20;;;;;;4846466;29;20547;-81
2024/02/29 06:39:50;;;;;;;1.60;1.30;;;5.20;98.20;;;;;;4864603;29;20995;-83
2024/02/29 06:42:17;;;;;;;4.63;4.37;;;5.20;98.20;;;;;;4847241;29;20508;-84
2024/02/29 06:44:45;;;;;;;1.60;1.33;;;5.20;98.20;;;;;;4863059;29;21155;-82
2024/02/29 06:47:11;;;;;;;1.93;1.83;;;5.20;98.20;;;;;;4852353;29;20491;-80
2024/02/29 06:49:39;;;;;;;1.60;1.40;;;5.20;98.20;;;;;;4860467;29;20477;-81
2024/02/29 06:52:09;;;;;;;1.60;1.40;;;5.20;98.20;;;;;;4847525;29;20500;-82
2024/02/29 06:54:36;;;;;;;2.17;1.97;;;5.20;98.20;;;;;;4861336;29;20479;-83
2024/02/29 06:57:03;;;;;;;1.60;1.30;;;5.30;98.20;;;;;;4852270;29;20490;-82
2024/02/29 06:59:30;;;;;;;1.60;1.30;;;5.30;98.20;;;;;;4864273;29;20481;-82
2024/02/29 07:01:57;;;;;;;1.57;1.30;;;5.30;98.20;;;;;;4860280;29;20549;-83
2024/02/29 07:04:24;;;;;;;1.60;1.30;;;5.40;98.20;;;;;;4866256;29;20480;-82
2024/02/29 07:06:55;;;;;;;1.60;1.30;;;5.40;98.20;;;;;;4856366;29;20909;-85
2024/02/29 07:09:21;;;;;;;1.60;1.30;;;5.50;98.20;;;;;;4865767;29;20531;-84
2024/02/29 07:11:49;;;;;;;1.60;1.30;;;5.60;98.20;;;;;;4845502;29;21020;-83
2024/02/29 07:14:16;;;;;;;1.60;1.30;;;5.70;98.20;;;;;;4860441;29;20479;-82
2024/02/29 07:16:43;;;;;;;1.60;1.40;;;5.70;98.20;;;;;;4850190;29;20562;-84
2024/02/29 07:19:10;;;;;;;1.60;1.30;;;5.80;98.20;;;;;;4860271;29;20515;-84
2024/02/29 07:21:37;;;;;;;1.60;1.40;;;5.80;98.20;;;;;;4850006;29;20504;-83
2024/02/29 07:24:06;;;;;;;1.60;1.30;;;5.90;98.20;;;;;;4854701;29;20496;-83
2024/02/29 07:26:32;;;;;;;1.50;1.20;;;6.00;98.20;;;;;;4847897;29;20487;-84
2024/02/29 07:28:59;;;;;;;2.13;1.93;;;6.00;98.20;;;;;;4857060;29;20562;-85
2024/02/29 07:31:26;;;;;;;1.60;1.30;;;6.10;98.20;;;;;;4843912;29;20488;-85
2024/02/29 07:33:54;;;;;;;1.60;1.30;;;6.20;98.20;;;;;;4856986;29;20475;-82
2024/02/29 07:36:21;;;;;;;1.60;1.30;;;6.20;98.20;;;;;;4842260;29;20515;-83
2024/02/29 07:38:48;;;;;;;1.60;1.20;;;6.30;98.20;;;;;;4849916;29;20590;-83
2024/02/29 07:41:16;;;;;;;1.60;1.30;;;6.30;98.20;;;;;;4849373;29;21030;-82
2024/02/29 07:43:43;;;;;;;1.60;1.30;;;6.40;98.20;;;;;;4858252;29;20499;-83
2024/02/29 07:46:10;;;;;;;1.57;1.20;;;6.50;98.20;;;;;;4851435;29;21168;-85
2024/02/29 07:48:37;;;;;;;1.53;1.30;;;6.70;98.20;;;;;;4867196;29;20502;-85
2024/02/29 07:51:04;;;;;;;1.60;1.40;;;6.80;98.20;;;;;;4848169;29;20467;-84
2024/02/29 07:53:31;;;;;;;2.00;1.80;;;6.90;98.20;;;;;;4856180;29;20531;-85
2024/02/29 07:55:58;;;;;;;1.60;1.20;;;7.10;98.20;;;;;;4846399;29;20920;-82
2024/02/29 07:58:26;;;;;;;1.60;1.30;;;7.30;98.20;;;;;;4848324;29;20528;-83
2024/02/29 08:00:53;;;;;;;1.60;1.30;;;7.40;98.20;;;;;;4848412;29;20478;-86
2024/02/29 08:03:20;;;;;;;1.60;1.30;;;7.50;98.20;;;;;;4853049;29;20541;-84
2024/02/29 08:05:49;;;;;;;1.60;1.20;;;7.70;98.20;;;;;;4849450;29;20479;-83
2024/02/29 08:08:16;;;;;;;1.60;1.30;;;7.90;98.20;;;;;;4848487;29;20499;-84
2024/02/29 08:10:43;;;;;;;2.27;2.07;;;8.00;98.20;;;;;;4857653;29;20558;-81
2024/02/29 08:13:29;;;;;;;1.60;1.20;;;8.00;98.20;;;;;;4862204;29;20515;-82
2024/02/29 08:16:07;;;;;;;1.57;1.20;;;8.00;98.20;;;;;;4847986;29;20551;-85
2024/02/29 08:18:34;;;;;;;1.70;1.53;;;8.10;98.20;;;;;;4855109;29;20495;-84
2024/02/29 08:21:10;;;;;;;1.57;1.20;;;8.10;98.20;;;;;;4849896;29;20489;-82
2024/02/29 08:23:37;;;;;;;1.60;1.30;;;8.10;98.20;;;;;;4861407;29;20551;-84
2024/02/29 08:26:08;;;;;;;1.50;1.10;;;8.10;98.20;;;;;;4849043;29;20475;-83
2024/02/29 08:28:37;;;;;;;1.60;1.20;;;8.10;98.20;;;;;;4852114;29;20503;-84
2024/02/29 08:31:04;;;;;;;2.27;2.07;;;8.20;98.20;;;;;;4851434;29;20464;-85
2024/02/29 08:33:31;;;;;;;1.60;1.10;;;8.30;98.20;;;;;;4876676;29;20464;-88
2024/02/29 08:35:58;;;;;;;1.60;1.20;;;8.30;98.20;;;;;;4843834;29;20478;-85
2024/02/29 08:38:25;;;;;;;1.60;1.20;;;8.50;98.20;;;;;;4845729;29;20610;-86
2024/02/29 08:40:52;;;;;;;1.97;1.77;;;8.50;98.20;;;;;;4847753;29;20484;-84
2024/02/29 08:43:20;;;;;;;1.53;1.20;;;8.60;98.20;;;;;;4853167;29;20587;-86
2024/02/29 08:45:49;;;;;;;1.57;1.10;;;8.60;98.20;;;;;;4855342;29;20478;-84
2024/02/29 08:48:16;;;;;;;1.60;1.50;;;8.60;98.20;;;;;;4848502;29;20502;-85
2024/02/29 08:50:43;;;;;;;1.80;1.60;;;8.70;98.20;;;;;;4857762;29;20526;-83
2024/02/29 08:53:10;;;;;;;1.60;1.20;;;8.70;98.20;;;;;;4845569;29;20486;-84
2024/02/29 08:55:37;;;;;;;1.60;1.10;;;8.60;98.20;;;;;;4857309;29;20558;-85
2024/02/29 08:58:04;;;;;;;1.60;1.10;;;8.60;98.20;;;;;;4842169;29;20498;-84
2024/02/29 09:00:31;;;;;;;1.57;1.20;;;8.50;98.20;;;;;;4857482;29;20563;-83
2024/02/29 09:02:59;;;;;;;1.57;1.17;;;8.60;98.20;;;;;;4847011;29;20587;-85
2024/02/29 09:05:26;;;;;;;1.60;1.20;;;8.60;98.20;;;;;;4855220;29;20570;-85
2024/02/29 09:07:53;;;;;;;1.70;1.50;;;8.60;98.20;;;;;;4837712;29;20548;-81
2024/02/29 09:10:21;;;;;;;1.60;1.20;;;8.60;98.20;;;;;;4855022;29;20539;-83
2024/02/29 09:12:48;;;;;;;1.57;1.10;;;8.80;98.20;;;;;;4842711;29;21031;-80
2024/02/29 09:15:15;;;;;;;1.60;1.20;;;8.90;98.20;;;;;;4855235;29;20578;-83
2024/02/29 09:17:44;;;;;;;1.57;1.10;;;9.00;98.20;;;;;;4837953;29;20484;-83
2024/02/29 09:20:14;;;;;;;1.53;1.13;;;9.10;98.20;;;;;;4854304;29;20475;-83
2024/02/29 09:22:41;;;;;;;1.57;1.10;;;9.20;98.20;;;;;;4842360;29;20502;-84
2024/02/29 09:25:09;;;;;;;1.57;1.10;;;9.20;98.20;;;;;;4855140;29;20467;-83
2024/02/29 09:27:35;;;;;;;1.57;1.10;;;9.30;98.20;;;;;;4842034;29;20589;-84
2024/02/29 09:30:03;;;;;;;2.90;2.60;;;9.30;98.20;;;;;;4856915;29;20493;-85
2024/02/29 09:32:30;;;;;;;1.60;1.10;;;9.40;98.20;;;;;;4845927;29;20495;-85
2024/02/29 09:34:57;;;;;;;1.60;1.10;;;9.50;98.20;;;;;;4854644;29;20475;-85
2024/02/29 09:37:26;;;;;;;1.57;1.10;;;9.50;98.20;;;;;;4840657;29;20827;-86
2024/02/29 09:39:52;;;;;;;1.60;1.20;;;9.40;98.20;;;;;;4857405;29;20481;-82
2024/02/29 09:42:19;;;;;;;1.60;1.40;;;9.40;98.20;;;;;;4841070;29;20736;-83
2024/02/29 09:44:55;;;;;;;1.60;1.27;;;9.40;98.20;;;;;;4854665;29;20472;-83
2024/02/29 09:47:23;;;;;;;1.60;1.20;;;9.40;98.20;;;;;;4837716;29;21078;-84
2024/02/29 09:52:37;;;;;;;1.60;1.30;;;9.30;98.20;;;;;;4878496;29;20489;-84
2024/02/29 09:55:05;;;;;;;1.57;1.10;;;9.30;98.20;;;;;;4891980;29;20476;-83
2024/02/29 09:57:33;;;;;;;2.67;2.17;;;9.40;98.20;;;;;;4889252;29;20485;-84
2024/02/29 10:00:02;;;;;;;1.53;1.10;;;9.50;98.20;;;;;;4885165;29;21016;-83
2024/02/29 10:05:16;;;;;;;1.60;1.20;;;9.50;98.20;;;;;;4889219;29;20488;-83
2024/02/29 10:07:47;;;;;;;1.53;1.10;;;9.60;98.20;;;;;;4891175;29;20496;-86
2024/02/29 10:10:15;;;;;;;1.53;1.20;;;9.70;98.20;;;;;;4893746;29;20548;-82
2024/02/29 10:12:43;;;;;;;1.60;1.10;;;9.90;98.20;;;;;;4887419;29;20490;-83
2024/02/29 10:15:11;;;;;;;1.60;1.10;;;9.90;98.20;;;;;;4895495;29;20473;-85
2024/02/29 10:17:38;;;;;;;1.57;1.10;;;10.00;98.20;;;;;;4883530;29;20978;-86
2024/02/29 10:20:09;;;;;;;1.50;1.10;;;10.00;98.20;;;;;;4894809;29;20496;-84
2024/02/29 10:22:37;;;;;;;1.60;1.20;;;10.00;98.20;;;;;;4884818;29;20490;-85
2024/02/29 10:25:11;;;;;;;1.57;1.17;;;9.90;98.20;;;;;;4895518;29;20468;-85
2024/02/29 10:27:41;;;;;;;1.60;1.00;;;9.90;98.20;;;;;;4883934;29;20500;-85
2024/02/29 10:30:12;;;;;;;1.57;1.10;;;10.00;98.20;;;;;;4889856;29;20497;-84
2024/02/29 10:32:40;;;;;;;1.60;1.10;;;10.10;98.20;;;;;;4891940;29;20504;-82
2024/02/29 10:35:20;;;;;;;1.57;1.00;;;10.10;98.20;;;;;;4896027;29;20476;-85
2024/02/29 10:37:48;;;;;;;1.53;1.10;;;10.20;98.20;;;;;;4887512;29;20491;-83
2024/02/29 10:40:17;;;;;;;1.57;1.03;;;10.20;98.20;;;;;;4895386;29;20591;-82
2024/02/29 10:42:44;;;;;;;1.57;1.07;;;10.20;98.20;;;;;;4887181;29;20485;-84
2024/02/29 10:45:16;;;;;;;1.50;1.10;;;10.30;98.20;;;;;;4891710;29;20478;-83
2024/02/29 10:47:52;;;;;;;1.57;1.10;;;10.40;98.20;;;;;;4884889;29;20487;-82
2024/02/29 10:50:25;;;;;;;1.57;1.10;;;10.50;98.20;;;;;;4895385;29;20923;-85
2024/02/29 10:53:03;;;;;;;1.60;1.40;;;10.60;98.20;;;;;;4891630;29;20486;-84
2024/02/29 10:55:40;;;;;;;1.57;1.10;;;10.70;98.20;;;;;;4890031;29;20477;-82
2024/02/29 10:58:17;;;;;;;1.53;1.10;;;10.80;98.20;;;;;;4888635;29;20598;-82
2024/02/29 11:00:44;;;;;;;1.67;1.30;;;11.00;98.20;;;;;;4894637;29;20492;-85
2024/02/29 11:03:12;;;;;;;1.70;1.40;;;11.10;98.20;;;;;;4886715;29;20493;-84
2024/02/29 11:05:42;;;;;;;1.60;1.10;;;11.20;98.20;;;;;;4897594;29;20780;-83
2024/02/29 11:08:10;;;;;;;1.53;1.00;;;11.40;98.20;;;;;;4886688;29;20529;-83
2024/02/29 11:10:40;;;;;;;1.50;1.00;;;11.50;98.20;;;;;;4896927;29;20548;-83
2024/02/29 11:13:07;;;;;;;1.60;1.30;;;11.60;98.20;;;;;;4882850;29;20473;-82
2024/02/29 11:15:34;;;;;;;1.50;1.00;;;11.60;98.20;;;;;;4890488;29;20941;-80
2024/02/29 11:18:01;;;;;;;1.57;1.00;;;11.70;97.80;;;;;;4897760;29;20582;-84
2024/02/29 11:20:32;;;;;;;1.57;1.10;;;11.60;98.20;;;;;;4889610;29;20511;-84
2024/02/29 11:23:05;;;;;;;1.60;1.20;;;11.70;98.00;;;;;;4887187;29;20495;-83
2024/02/29 11:25:31;;;;;;;1.57;1.07;;;11.70;98.20;;;;;;4891583;29;20848;-83
2024/02/29 11:28:04;;;;;;;1.50;1.00;;;11.70;98.10;;;;;;4900432;29;20492;-83
2024/02/29 11:30:31;;;;;;;1.50;1.00;;;11.80;98.20;;;;;;4885626;29;20489;-84
2024/02/29 11:33:08;;;;;;;1.53;1.10;;;11.90;98.10;;;;;;4895426;29;20484;-82
2024/02/29 11:35:34;;;;;;;1.60;1.10;;;12.00;98.20;;;;;;4884242;29;20477;-85
2024/02/29 11:38:03;;;;;;;2.47;1.33;;;12.00;97.90;;;;;;4887442;29;20489;-84
2024/02/29 11:40:34;;;;;;;1.60;1.23;;;12.00;98.20;;;;;;4887088;29;20533;-83
2024/02/29 11:43:02;;;;;;;1.50;1.00;;;12.10;98.20;;;;;;4887661;29;20493;-85
2024/02/29 11:45:31;;;;;;;2.07;1.73;;;12.10;98.20;;;;;;4886967;29;20839;-82
2024/02/29 11:47:58;;;;;;;1.70;1.50;;;12.10;97.50;;;;;;4885834;29;20973;-85
2024/02/29 11:50:25;;;;;;;1.57;1.00;;;12.10;97.80;;;;;;4895419;29;20501;-84
2024/02/29 11:52:56;;;;;;;1.60;1.10;;;12.10;97.40;;;;;;4890232;29;20502;-84
2024/02/29 11:55:27;;;;;;;1.60;1.10;;;12.10;97.70;;;;;;4896227;29;20829;-81
2024/02/29 11:57:58;;;;;;;1.60;1.17;;;12.10;96.50;;;;;;4900635;29;20492;-82
2024/02/29 12:00:31;;;;;;;1.57;1.00;;;12.00;96.00;;;;;;4895355;29;20580;-83
2024/02/29 12:03:04;;;;;;;1.50;1.00;;;12.00;96.20;;;;;;4885018;29;21027;-84
2024/02/29 12:05:31;;;;;;;2.00;1.67;;;11.90;96.60;;;;;;4888579;29;20477;-82
2024/02/29 12:07:59;;;;;;;2.30;2.10;;;11.80;96.50;;;;;;4883439;29;20489;-83
2024/02/29 12:10:27;;;;;;;1.50;1.00;;;11.80;97.10;;;;;;4889775;29;20920;-83
2024/02/29 12:12:57;;;;;;;1.60;1.10;;;11.70;97.50;;;;;;4893498;29;20600;-82
2024/02/29 12:15:24;;;;;;;1.57;1.10;;;11.70;97.60;;;;;;4894150;29;20470;-82
2024/02/29 12:17:53;;;;;;;1.60;1.10;;;11.70;96.90;;;;;;4890744;29;20513;-83
2024/02/29 12:20:23;;;;;;;1.57;1.00;;;11.60;97.10;;;;;;4890460;29;20494;-81
2024/02/29 12:22:58;;;;;;;1.60;1.10;;;11.60;97.50;;;;;;4895178;29;20490;-83
2024/02/29 12:25:49;;;;;;;1.70;1.20;;;11.60;98.20;;;;;;4892253;29;20468;-83
2024/02/29 12:28:18;;;;;;;1.53;1.10;;;11.70;98.20;;;;;;4883375;29;20504;-84
2024/02/29 12:30:48;;;;;;;1.50;1.00;;;11.80;98.20;;;;;;4900699;29;20772;-83
2024/02/29 12:33:17;;;;;;;1.50;1.00;;;11.90;98.20;;;;;;4879001;29;20482;-85
2024/02/29 12:35:44;;;;;;;1.53;1.00;;;11.90;98.10;;;;;;4895867;29;20461;-82
2024/02/29 12:38:23;;;;;;;1.50;1.10;;;12.00;97.80;;;;;;4908017;29;20912;-85
2024/02/29 12:40:51;;;;;;;1.60;1.10;;;11.90;97.60;;;;;;4889676;29;20486;-85
2024/02/29 12:43:18;;;;;;;1.60;1.10;;;11.90;97.90;;;;;;4899267;29;20901;-84
2024/02/29 12:45:45;;;;;;;1.57;1.10;;;11.90;97.70;;;;;;4893501;29;20533;-83
2024/02/29 12:48:15;;;;;;;1.50;1.10;;;11.90;97.40;;;;;;4880704;29;20467;-86
2024/02/29 12:50:43;;;;;;;2.13;1.93;;;11.90;97.90;;;;;;4894031;29;20506;-84
2024/02/29 12:53:10;;;;;;;1.60;1.10;;;11.90;97.90;;;;;;4888141;29;20569;-82
2024/02/29 12:55:38;;;;;;;1.50;1.00;;;11.90;97.50;;;;;;4898237;29;20522;-82
2024/02/29 12:58:06;;;;;;;1.60;1.10;;;12.00;98.10;;;;;;4898799;29;20509;-83
2024/02/29 13:00:33;;;;;;;1.60;1.10;;;12.00;98.20;;;;;;4898348;29;20508;-84
2024/02/29 13:03:07;;;;;;;1.57;1.00;;;12.10;97.90;;;;;;4893551;29;20501;-85
2024/02/29 13:05:34;;;;;;;1.57;1.10;;;12.10;98.10;;;;;;4895800;29;20462;-85
2024/02/29 13:08:04;;;;;;;1.53;1.00;;;12.10;98.20;;;;;;4899713;29;20528;-83
2024/02/29 13:10:41;;;;;;;1.53;1.00;;;12.20;98.20;;;;;;4898924;29;20493;-84
2024/02/29 13:13:08;;;;;;;1.60;1.10;;;12.30;98.20;;;;;;4891830;29;20485;-84